sensor_id;sensor_type;location;lat;lon;timestamp;temperature;humidity
63202;DHT22;49296;48.188;11.566;2023-05-14T00:01:14;12.89;76.29
63202;DHT22;49296;48.188;11.566;2023-05-14T00:03:41;12.84;76.37
63202;DHT22;49296;48.188;11.566;2023-05-14T00:06:08;12.82;76.54
63202;DHT22;49296;48.188;11.566;2023-05-14T00:08:35;12.80;76.59
63202;DHT22;49296;48.188;11.566;2023-05-14T00:11:01;12.83;76.38
63202;DHT22;49296;48.188;11.566;2023-05-14T00:13:28;12.80;76.17
63202;DHT22;49296;48.188;11.566;2023-05-14T00:15:55;12.76;76.53
63202;DHT22;49296;48.188;11.566;2023-05-14T00:18:23;12.72;76.65
63202;DHT22;49296;48.188;11.566;2023-05-14T00:20:50;12.77;76.62
63202;DHT22;49296;48.188;11.566;2023-05-14T00:23:19;12.80;76.57
63202;DHT22;49296;48.188;11.566;2023-05-14T00:25:45;12.73;76.59
63202;DHT22;49296;48.188;11.566;2023-05-14T00:28:12;12.75;76.68
63202;DHT22;49296;48.188;11.566;2023-05-14T00:30:39;12.72;76.71
63202;DHT22;49296;48.188;11.566;2023-05-14T00:33:05;12.80;76.31
63202;DHT22;49296;48.188;11.566;2023-05-14T00:35:33;12.89;76.14
63202;DHT22;49296;48.188;11.566;2023-05-14T00:38:00;12.86;76.10
63202;DHT22;49296;48.188;11.566;2023-05-14T00:40:27;12.76;76.49
63202;DHT22;49296;48.188;11.566;2023-05-14T00:42:55;12.75;76.15
63202;DHT22;49296;48.188;11.566;2023-05-14T00:45:22;12.75;76.10
63202;DHT22;49296;48.188;11.566;2023-05-14T00:47:48;12.76;75.89
63202;DHT22;49296;48.188;11.566;2023-05-14T00:50:15;12.69;75.84
63202;DHT22;49296;48.188;11.566;2023-05-14T00:52:44;12.65;75.88
63202;DHT22;49296;48.188;11.566;2023-05-14T00:55:14;12.62;75.92
63202;DHT22;49296;48.188;11.566;2023-05-14T00:57:42;12.59;76.07
63202;DHT22;49296;48.188;11.566;2023-05-14T01:00:09;12.56;76.34
63202;DHT22;49296;48.188;11.566;2023-05-14T01:02:36;12.60;76.17
63202;DHT22;49296;48.188;11.566;2023-05-14T01:05:03;12.62;76.01
63202;DHT22;49296;48.188;11.566;2023-05-14T01:07:37;12.60;76.19
63202;DHT22;49296;48.188;11.566;2023-05-14T01:10:13;12.57;76.12
63202;DHT22;49296;48.188;11.566;2023-05-14T01:12:45;12.65;75.92
63202;DHT22;49296;48.188;11.566;2023-05-14T01:15:16;12.65;76.02
63202;DHT22;49296;48.188;11.566;2023-05-14T01:17:47;12.57;76.50
63202;DHT22;49296;48.188;11.566;2023-05-14T01:20:14;12.59;76.66
63202;DHT22;49296;48.188;11.566;2023-05-14T01:22:42;12.65;76.65
63202;DHT22;49296;48.188;11.566;2023-05-14T01:25:09;12.62;76.84
63202;DHT22;49296;48.188;11.566;2023-05-14T01:27:40;12.65;77.00
63202;DHT22;49296;48.188;11.566;2023-05-14T01:30:15;12.65;76.99
63202;DHT22;49296;48.188;11.566;2023-05-14T01:32:47;12.62;77.12
63202;DHT22;49296;48.188;11.566;2023-05-14T01:35:16;12.52;77.42
63202;DHT22;49296;48.188;11.566;2023-05-14T01:37:46;12.53;77.42
63202;DHT22;49296;48.188;11.566;2023-05-14T01:40:14;12.56;77.07
63202;DHT22;49296;48.188;11.566;2023-05-14T01:42:41;12.56;77.07
63202;DHT22;49296;48.188;11.566;2023-05-14T01:45:09;12.57;76.91
63202;DHT22;49296;48.188;11.566;2023-05-14T01:47:35;12.57;77.04
63202;DHT22;49296;48.188;11.566;2023-05-14T01:50:02;12.63;76.75
63202;DHT22;49296;48.188;11.566;2023-05-14T01:52:29;12.55;76.86
63202;DHT22;49296;48.188;11.566;2023-05-14T01:54:57;12.55;77.21
63202;DHT22;49296;48.188;11.566;2023-05-14T01:57:24;12.39;77.31
63202;DHT22;49296;48.188;11.566;2023-05-14T01:59:51;12.32;77.52
63202;DHT22;49296;48.188;11.566;2023-05-14T02:02:17;12.42;77.24
63202;DHT22;49296;48.188;11.566;2023-05-14T02:04:44;12.39;77.27
63202;DHT22;49296;48.188;11.566;2023-05-14T02:07:10;12.38;77.43
63202;DHT22;49296;48.188;11.566;2023-05-14T02:09:37;12.37;77.55
63202;DHT22;49296;48.188;11.566;2023-05-14T02:12:07;12.38;77.68
63202;DHT22;49296;48.188;11.566;2023-05-14T02:14:33;12.34;77.82
63202;DHT22;49296;48.188;11.566;2023-05-14T02:17:00;12.16;78.66
63202;DHT22;49296;48.188;11.566;2023-05-14T02:19:27;12.10;78.95
63202;DHT22;49296;48.188;11.566;2023-05-14T02:21:54;12.13;78.95
63202;DHT22;49296;48.188;11.566;2023-05-14T02:24:21;12.21;78.72
63202;DHT22;49296;48.188;11.566;2023-05-14T02:26:47;12.24;78.68
63202;DHT22;49296;48.188;11.566;2023-05-14T02:29:15;12.20;78.71
63202;DHT22;49296;48.188;11.566;2023-05-14T02:31:42;12.22;78.57
63202;DHT22;49296;48.188;11.566;2023-05-14T02:34:09;12.24;78.54
63202;DHT22;49296;48.188;11.566;2023-05-14T02:36:35;12.28;78.40
63202;DHT22;49296;48.188;11.566;2023-05-14T02:39:02;12.14;78.52
63202;DHT22;49296;48.188;11.566;2023-05-14T02:41:29;12.16;78.52
63202;DHT22;49296;48.188;11.566;2023-05-14T02:43:55;12.08;78.68
63202;DHT22;49296;48.188;11.566;2023-05-14T02:46:23;12.08;78.48
63202;DHT22;49296;48.188;11.566;2023-05-14T02:48:50;12.21;78.27
63202;DHT22;49296;48.188;11.566;2023-05-14T02:51:18;12.22;78.17
63202;DHT22;49296;48.188;11.566;2023-05-14T02:53:45;12.24;77.81
63202;DHT22;49296;48.188;11.566;2023-05-14T02:56:11;12.25;77.80
63202;DHT22;49296;48.188;11.566;2023-05-14T02:58:38;12.17;78.38
63202;DHT22;49296;48.188;11.566;2023-05-14T03:01:05;12.14;78.27
63202;DHT22;49296;48.188;11.566;2023-05-14T03:03:34;12.13;78.28
63202;DHT22;49296;48.188;11.566;2023-05-14T03:06:01;12.14;78.17
63202;DHT22;49296;48.188;11.566;2023-05-14T03:08:27;12.17;78.07
63202;DHT22;49296;48.188;11.566;2023-05-14T03:10:54;12.16;77.89
63202;DHT22;49296;48.188;11.566;2023-05-14T03:13:21;12.13;78.08
63202;DHT22;49296;48.188;11.566;2023-05-14T03:15:47;12.03;78.35
63202;DHT22;49296;48.188;11.566;2023-05-14T03:18:19;12.16;78.07
63202;DHT22;49296;48.188;11.566;2023-05-14T03:20:47;12.03;78.19
63202;DHT22;49296;48.188;11.566;2023-05-14T03:23:14;12.07;78.21
63202;DHT22;49296;48.188;11.566;2023-05-14T03:25:40;12.07;78.07
63202;DHT22;49296;48.188;11.566;2023-05-14T03:28:07;12.05;78.06
63202;DHT22;49296;48.188;11.566;2023-05-14T03:30:34;12.14;77.59
63202;DHT22;49296;48.188;11.566;2023-05-14T03:33:00;12.17;77.62
63202;DHT22;49296;48.188;11.566;2023-05-14T03:35:27;12.13;77.62
63202;DHT22;49296;48.188;11.566;2023-05-14T03:37:55;12.16;77.56
63202;DHT22;49296;48.188;11.566;2023-05-14T03:40:23;12.05;77.96
63202;DHT22;49296;48.188;11.566;2023-05-14T03:42:50;12.01;78.25
63202;DHT22;49296;48.188;11.566;2023-05-14T03:45:16;12.01;78.29
63202;DHT22;49296;48.188;11.566;2023-05-14T03:47:43;12.05;77.96
63202;DHT22;49296;48.188;11.566;2023-05-14T03:50:10;12.10;77.79
63202;DHT22;49296;48.188;11.566;2023-05-14T03:52:36;12.17;77.77
63202;DHT22;49296;48.188;11.566;2023-05-14T03:55:05;12.07;77.84
63202;DHT22;49296;48.188;11.566;2023-05-14T03:57:32;12.11;77.79
63202;DHT22;49296;48.188;11.566;2023-05-14T04:02:26;12.08;77.86
63202;DHT22;49296;48.188;11.566;2023-05-14T04:04:53;12.10;77.81
63202;DHT22;49296;48.188;11.566;2023-05-14T04:07:19;12.16;77.93
63202;DHT22;49296;48.188;11.566;2023-05-14T04:09:46;12.04;77.93
63202;DHT22;49296;48.188;11.566;2023-05-14T04:12:14;12.05;77.90
63202;DHT22;49296;48.188;11.566;2023-05-14T04:14:41;12.13;77.81
63202;DHT22;49296;48.188;11.566;2023-05-14T04:17:08;12.11;77.82
63202;DHT22;49296;48.188;11.566;2023-05-14T04:19:35;12.08;78.06
63202;DHT22;49296;48.188;11.566;2023-05-14T04:22:02;12.08;78.12
63202;DHT22;49296;48.188;11.566;2023-05-14T04:24:29;12.08;78.07
63202;DHT22;49296;48.188;11.566;2023-05-14T04:26:56;12.11;78.01
63202;DHT22;49296;48.188;11.566;2023-05-14T04:29:24;12.17;78.23
63202;DHT22;49296;48.188;11.566;2023-05-14T04:31:52;12.18;78.13
63202;DHT22;49296;48.188;11.566;2023-05-14T04:34:18;12.21;77.83
63202;DHT22;49296;48.188;11.566;2023-05-14T04:36:45;12.18;77.73
63202;DHT22;49296;48.188;11.566;2023-05-14T04:39:12;12.21;77.68
63202;DHT22;49296;48.188;11.566;2023-05-14T04:41:39;12.17;78.08
63202;DHT22;49296;48.188;11.566;2023-05-14T04:44:07;12.14;78.50
63202;DHT22;49296;48.188;11.566;2023-05-14T04:46:35;12.13;78.33
63202;DHT22;49296;48.188;11.566;2023-05-14T04:49:02;12.07;78.63
63202;DHT22;49296;48.188;11.566;2023-05-14T04:51:28;12.13;78.54
63202;DHT22;49296;48.188;11.566;2023-05-14T04:53:56;12.10;78.47
63202;DHT22;49296;48.188;11.566;2023-05-14T04:56:24;12.13;78.65
63202;DHT22;49296;48.188;11.566;2023-05-14T04:58:50;12.16;78.57
63202;DHT22;49296;48.188;11.566;2023-05-14T05:01:17;12.17;78.64
63202;DHT22;49296;48.188;11.566;2023-05-14T05:03:46;12.13;78.79
63202;DHT22;49296;48.188;11.566;2023-05-14T05:06:13;12.21;78.58
63202;DHT22;49296;48.188;11.566;2023-05-14T05:08:40;12.17;78.54
63202;DHT22;49296;48.188;11.566;2023-05-14T05:11:06;12.11;78.69
63202;DHT22;49296;48.188;11.566;2023-05-14T05:13:33;12.11;78.33
63202;DHT22;49296;48.188;11.566;2023-05-14T05:16:00;12.13;78.41
63202;DHT22;49296;48.188;11.566;2023-05-14T05:18:27;12.01;78.91
63202;DHT22;49296;48.188;11.566;2023-05-14T05:20:55;12.05;78.92
63202;DHT22;49296;48.188;11.566;2023-05-14T05:23:22;12.04;78.89
63202;DHT22;49296;48.188;11.566;2023-05-14T05:25:49;11.97;79.01
63202;DHT22;49296;48.188;11.566;2023-05-14T05:28:16;11.91;79.48
63202;DHT22;49296;48.188;11.566;2023-05-14T05:30:43;12.01;79.35
63202;DHT22;49296;48.188;11.566;2023-05-14T05:33:10;12.10;79.05
63202;DHT22;49296;48.188;11.566;2023-05-14T05:35:37;12.08;78.86
63202;DHT22;49296;48.188;11.566;2023-05-14T05:38:05;12.13;78.64
63202;DHT22;49296;48.188;11.566;2023-05-14T05:40:32;12.14;78.69
63202;DHT22;49296;48.188;11.566;2023-05-14T05:42:59;12.16;78.67
63202;DHT22;49296;48.188;11.566;2023-05-14T05:45:26;12.14;78.66
63202;DHT22;49296;48.188;11.566;2023-05-14T05:47:52;12.17;78.77
63202;DHT22;49296;48.188;11.566;2023-05-14T05:50:19;12.13;78.92
63202;DHT22;49296;48.188;11.566;2023-05-14T05:52:46;12.14;78.81
63202;DHT22;49296;48.188;11.566;2023-05-14T05:55:15;12.20;78.72
63202;DHT22;49296;48.188;11.566;2023-05-14T05:57:41;12.21;78.76
63202;DHT22;49296;48.188;11.566;2023-05-14T06:00:09;12.14;78.88
63202;DHT22;49296;48.188;11.566;2023-05-14T06:02:40;12.11;79.20
63202;DHT22;49296;48.188;11.566;2023-05-14T06:05:08;12.10;79.36
63202;DHT22;49296;48.188;11.566;2023-05-14T06:07:35;12.16;79.01
63202;DHT22;49296;48.188;11.566;2023-05-14T06:10:02;12.03;79.50
63202;DHT22;49296;48.188;11.566;2023-05-14T06:12:33;12.05;79.62
63202;DHT22;49296;48.188;11.566;2023-05-14T06:15:00;12.13;79.66
63202;DHT22;49296;48.188;11.566;2023-05-14T06:17:27;12.22;79.53
63202;DHT22;49296;48.188;11.566;2023-05-14T06:19:54;12.32;79.28
63202;DHT22;49296;48.188;11.566;2023-05-14T06:22:20;12.34;78.82
63202;DHT22;49296;48.188;11.566;2023-05-14T06:24:47;12.37;78.84
63202;DHT22;49296;48.188;11.566;2023-05-14T06:27:14;12.38;78.68
63202;DHT22;49296;48.188;11.566;2023-05-14T06:29:42;12.38;78.76
63202;DHT22;49296;48.188;11.566;2023-05-14T06:32:09;12.38;78.71
63202;DHT22;49296;48.188;11.566;2023-05-14T06:34:39;12.32;78.84
63202;DHT22;49296;48.188;11.566;2023-05-14T06:37:06;12.16;79.05
63202;DHT22;49296;48.188;11.566;2023-05-14T06:39:34;12.24;78.97
63202;DHT22;49296;48.188;11.566;2023-05-14T06:42:00;12.28;78.83
63202;DHT22;49296;48.188;11.566;2023-05-14T06:44:27;12.31;78.78
63202;DHT22;49296;48.188;11.566;2023-05-14T06:46:55;12.37;78.50
63202;DHT22;49296;48.188;11.566;2023-05-14T06:49:22;12.38;78.61
63202;DHT22;49296;48.188;11.566;2023-05-14T06:51:49;12.42;78.56
63202;DHT22;49296;48.188;11.566;2023-05-14T06:54:16;12.42;78.88
63202;DHT22;49296;48.188;11.566;2023-05-14T06:56:44;12.41;78.83
63202;DHT22;49296;48.188;11.566;2023-05-14T06:59:11;12.44;78.55
63202;DHT22;49296;48.188;11.566;2023-05-14T07:01:38;12.46;78.78
63202;DHT22;49296;48.188;11.566;2023-05-14T07:04:06;12.52;78.10
63202;DHT22;49296;48.188;11.566;2023-05-14T07:06:33;12.52;78.10
63202;DHT22;49296;48.188;11.566;2023-05-14T07:09:00;12.59;77.69
63202;DHT22;49296;48.188;11.566;2023-05-14T07:11:27;12.59;77.72
63202;DHT22;49296;48.188;11.566;2023-05-14T07:13:54;12.53;77.88
63202;DHT22;49296;48.188;11.566;2023-05-14T07:16:21;12.55;77.88
63202;DHT22;49296;48.188;11.566;2023-05-14T07:18:48;12.48;78.08
63202;DHT22;49296;48.188;11.566;2023-05-14T07:21:16;12.52;78.16
63202;DHT22;49296;48.188;11.566;2023-05-14T07:23:43;12.46;78.45
63202;DHT22;49296;48.188;11.566;2023-05-14T07:26:10;12.42;78.25
63202;DHT22;49296;48.188;11.566;2023-05-14T07:28:37;12.44;78.49
63202;DHT22;49296;48.188;11.566;2023-05-14T07:31:04;12.45;78.32
63202;DHT22;49296;48.188;11.566;2023-05-14T07:33:33;12.60;77.76
63202;DHT22;49296;48.188;11.566;2023-05-14T07:36:00;12.59;77.53
63202;DHT22;49296;48.188;11.566;2023-05-14T07:38:28;12.62;77.34
63202;DHT22;49296;48.188;11.566;2023-05-14T07:40:55;12.52;77.67
63202;DHT22;49296;48.188;11.566;2023-05-14T07:43:22;12.44;77.92
63202;DHT22;49296;48.188;11.566;2023-05-14T07:45:49;12.34;78.35
63202;DHT22;49296;48.188;11.566;2023-05-14T07:48:15;12.25;78.61
63202;DHT22;49296;48.188;11.566;2023-05-14T07:50:42;12.24;78.87
63202;DHT22;49296;48.188;11.566;2023-05-14T07:53:09;12.27;78.66
63202;DHT22;49296;48.188;11.566;2023-05-14T07:55:38;12.32;78.96
63202;DHT22;49296;48.188;11.566;2023-05-14T07:58:04;12.31;79.00
63202;DHT22;49296;48.188;11.566;2023-05-14T08:00:31;12.21;79.04
63202;DHT22;49296;48.188;11.566;2023-05-14T08:02:59;12.27;79.25
63202;DHT22;49296;48.188;11.566;2023-05-14T08:05:25;12.29;79.05
63202;DHT22;49296;48.188;11.566;2023-05-14T08:07:52;12.21;79.12
63202;DHT22;49296;48.188;11.566;2023-05-14T08:10:19;12.29;79.23
63202;DHT22;49296;48.188;11.566;2023-05-14T08:12:47;12.32;79.21
63202;DHT22;49296;48.188;11.566;2023-05-14T08:15:14;12.49;78.81
63202;DHT22;49296;48.188;11.566;2023-05-14T08:17:42;12.52;78.17
63202;DHT22;49296;48.188;11.566;2023-05-14T08:20:09;12.70;77.75
63202;DHT22;49296;48.188;11.566;2023-05-14T08:22:37;12.77;77.40
63202;DHT22;49296;48.188;11.566;2023-05-14T08:25:04;12.83;77.65
63202;DHT22;49296;48.188;11.566;2023-05-14T08:27:32;12.84;77.35
63202;DHT22;49296;48.188;11.566;2023-05-14T08:30:00;12.99;77.45
63202;DHT22;49296;48.188;11.566;2023-05-14T08:32:27;12.96;76.91
63202;DHT22;49296;48.188;11.566;2023-05-14T08:34:54;12.86;76.79
63202;DHT22;49296;48.188;11.566;2023-05-14T08:37:21;12.94;77.05
63202;DHT22;49296;48.188;11.566;2023-05-14T08:39:48;13.00;76.50
63202;DHT22;49296;48.188;11.566;2023-05-14T08:42:18;12.99;76.34
63202;DHT22;49296;48.188;11.566;2023-05-14T08:44:48;12.86;76.61
63202;DHT22;49296;48.188;11.566;2023-05-14T08:47:17;12.83;76.44
63202;DHT22;49296;48.188;11.566;2023-05-14T08:49:49;12.82;77.09
63202;DHT22;49296;48.188;11.566;2023-05-14T08:52:19;12.86;76.73
63202;DHT22;49296;48.188;11.566;2023-05-14T08:54:49;13.01;76.73
63202;DHT22;49296;48.188;11.566;2023-05-14T08:57:18;12.97;76.47
63202;DHT22;49296;48.188;11.566;2023-05-14T08:59:52;12.96;76.07
63202;DHT22;49296;48.188;11.566;2023-05-14T09:02:24;12.96;76.05
63202;DHT22;49296;48.188;11.566;2023-05-14T09:04:54;12.97;76.39
63202;DHT22;49296;48.188;11.566;2023-05-14T09:07:22;12.96;75.96
63202;DHT22;49296;48.188;11.566;2023-05-14T09:09:50;12.94;75.81
63202;DHT22;49296;48.188;11.566;2023-05-14T09:12:16;12.83;75.85
63202;DHT22;49296;48.188;11.566;2023-05-14T09:14:44;12.90;75.97
63202;DHT22;49296;48.188;11.566;2023-05-14T09:17:11;12.83;75.92
63202;DHT22;49296;48.188;11.566;2023-05-14T09:19:40;12.80;75.78
63202;DHT22;49296;48.188;11.566;2023-05-14T09:22:08;12.87;76.01
63202;DHT22;49296;48.188;11.566;2023-05-14T09:24:35;12.90;75.86
63202;DHT22;49296;48.188;11.566;2023-05-14T09:27:03;12.99;75.87
63202;DHT22;49296;48.188;11.566;2023-05-14T09:29:31;13.08;75.13
63202;DHT22;49296;48.188;11.566;2023-05-14T09:31:59;13.15;74.67
63202;DHT22;49296;48.188;11.566;2023-05-14T09:34:30;13.21;74.62
63202;DHT22;49296;48.188;11.566;2023-05-14T09:37:00;13.25;74.55
63202;DHT22;49296;48.188;11.566;2023-05-14T09:39:27;13.38;74.44
63202;DHT22;49296;48.188;11.566;2023-05-14T09:41:54;13.32;74.70
63202;DHT22;49296;48.188;11.566;2023-05-14T09:44:22;13.41;73.95
63202;DHT22;49296;48.188;11.566;2023-05-14T09:46:49;13.45;73.88
63202;DHT22;49296;48.188;11.566;2023-05-14T09:49:17;13.51;73.84
63202;DHT22;49296;48.188;11.566;2023-05-14T09:51:49;13.48;73.49
63202;DHT22;49296;48.188;11.566;2023-05-14T09:54:19;13.35;73.81
63202;DHT22;49296;48.188;11.566;2023-05-14T09:56:46;13.32;73.88
63202;DHT22;49296;48.188;11.566;2023-05-14T09:59:13;13.32;73.49
63202;DHT22;49296;48.188;11.566;2023-05-14T10:01:47;13.24;74.45
63202;DHT22;49296;48.188;11.566;2023-05-14T10:04:15;13.31;73.96
63202;DHT22;49296;48.188;11.566;2023-05-14T10:06:43;13.35;73.74
63202;DHT22;49296;48.188;11.566;2023-05-14T10:09:15;13.28;74.30
63202;DHT22;49296;48.188;11.566;2023-05-14T10:11:47;13.29;74.84
63202;DHT22;49296;48.188;11.566;2023-05-14T10:14:21;13.24;74.06
63202;DHT22;49296;48.188;11.566;2023-05-14T10:16:52;13.26;73.82
63202;DHT22;49296;48.188;11.566;2023-05-14T10:19:20;13.14;74.15
63202;DHT22;49296;48.188;11.566;2023-05-14T10:21:54;13.14;74.07
63202;DHT22;49296;48.188;11.566;2023-05-14T10:24:21;13.04;74.25
63202;DHT22;49296;48.188;11.566;2023-05-14T10:26:49;13.10;74.36
63202;DHT22;49296;48.188;11.566;2023-05-14T10:29:16;13.03;74.24
63202;DHT22;49296;48.188;11.566;2023-05-14T10:31:47;13.00;74.29
63202;DHT22;49296;48.188;11.566;2023-05-14T10:34:30;13.01;73.96
63202;DHT22;49296;48.188;11.566;2023-05-14T10:36:58;13.06;74.43
63202;DHT22;49296;48.188;11.566;2023-05-14T10:39:39;13.12;74.05
63202;DHT22;49296;48.188;11.566;2023-05-14T10:42:09;13.21;73.79
63202;DHT22;49296;48.188;11.566;2023-05-14T10:44:43;13.28;74.13
63202;DHT22;49296;48.188;11.566;2023-05-14T10:47:11;13.32;72.78
63202;DHT22;49296;48.188;11.566;2023-05-14T10:49:38;13.38;72.89
63202;DHT22;49296;48.188;11.566;2023-05-14T10:52:07;13.46;73.26
63202;DHT22;49296;48.188;11.566;2023-05-14T10:54:34;13.46;73.43
63202;DHT22;49296;48.188;11.566;2023-05-14T10:57:01;13.41;73.40
63202;DHT22;49296;48.188;11.566;2023-05-14T10:59:32;13.53;72.29
63202;DHT22;49296;48.188;11.566;2023-05-14T11:01:59;13.52;71.91
63202;DHT22;49296;48.188;11.566;2023-05-14T11:04:26;13.60;72.00
63202;DHT22;49296;48.188;11.566;2023-05-14T11:06:54;13.65;71.28
63202;DHT22;49296;48.188;11.566;2023-05-14T11:09:23;13.63;71.28
63202;DHT22;49296;48.188;11.566;2023-05-14T11:11:50;13.55;71.12
63202;DHT22;49296;48.188;11.566;2023-05-14T11:14:17;13.63;71.28
63202;DHT22;49296;48.188;11.566;2023-05-14T11:16:46;13.65;70.87
63202;DHT22;49296;48.188;11.566;2023-05-14T11:19:13;13.70;70.75
63202;DHT22;49296;48.188;11.566;2023-05-14T11:21:42;13.73;71.18
63202;DHT22;49296;48.188;11.566;2023-05-14T11:24:08;13.83;72.05
63202;DHT22;49296;48.188;11.566;2023-05-14T11:26:35;13.84;70.51
63202;DHT22;49296;48.188;11.566;2023-05-14T11:29:03;13.81;70.96
63202;DHT22;49296;48.188;11.566;2023-05-14T11:31:30;13.87;70.43
63202;DHT22;49296;48.188;11.566;2023-05-14T11:33:58;13.83;71.35
63202;DHT22;49296;48.188;11.566;2023-05-14T11:36:28;13.90;70.19
63202;DHT22;49296;48.188;11.566;2023-05-14T11:38:55;13.88;69.98
63202;DHT22;49296;48.188;11.566;2023-05-14T11:41:22;13.87;70.42
63202;DHT22;49296;48.188;11.566;2023-05-14T11:43:48;13.87;70.40
63202;DHT22;49296;48.188;11.566;2023-05-14T11:46:16;13.97;69.83
63202;DHT22;49296;48.188;11.566;2023-05-14T11:48:43;14.07;69.73
63202;DHT22;49296;48.188;11.566;2023-05-14T11:51:11;14.25;69.18
63202;DHT22;49296;48.188;11.566;2023-05-14T11:53:38;14.31;69.21
63202;DHT22;49296;48.188;11.566;2023-05-14T11:56:05;14.50;68.26
63202;DHT22;49296;48.188;11.566;2023-05-14T11:58:32;14.73;68.84
63202;DHT22;49296;48.188;11.566;2023-05-14T12:00:59;15.11;68.00
63202;DHT22;49296;48.188;11.566;2023-05-14T12:03:25;15.27;67.99
63202;DHT22;49296;48.188;11.566;2023-05-14T12:05:55;15.32;66.95
63202;DHT22;49296;48.188;11.566;2023-05-14T12:08:25;15.46;65.54
63202;DHT22;49296;48.188;11.566;2023-05-14T12:10:52;15.40;64.50
63202;DHT22;49296;48.188;11.566;2023-05-14T12:13:18;15.27;66.52
63202;DHT22;49296;48.188;11.566;2023-05-14T12:15:45;15.42;66.31
63202;DHT22;49296;48.188;11.566;2023-05-14T12:18:12;15.43;65.98
63202;DHT22;49296;48.188;11.566;2023-05-14T12:20:46;15.47;64.98
63202;DHT22;49296;48.188;11.566;2023-05-14T12:23:12;15.83;64.53
63202;DHT22;49296;48.188;11.566;2023-05-14T12:25:48;15.90;63.84
63202;DHT22;49296;48.188;11.566;2023-05-14T12:28:15;15.74;63.04
63202;DHT22;49296;48.188;11.566;2023-05-14T12:30:42;15.83;63.63
63202;DHT22;49296;48.188;11.566;2023-05-14T12:33:09;15.83;65.11
63202;DHT22;49296;48.188;11.566;2023-05-14T12:35:36;15.76;65.06
63202;DHT22;49296;48.188;11.566;2023-05-14T12:38:02;15.93;62.62
63202;DHT22;49296;48.188;11.566;2023-05-14T12:40:29;15.86;63.77
63202;DHT22;49296;48.188;11.566;2023-05-14T12:42:57;16.42;63.32
63202;DHT22;49296;48.188;11.566;2023-05-14T12:45:23;16.64;62.12
63202;DHT22;49296;48.188;11.566;2023-05-14T12:47:50;17.03;60.51
63202;DHT22;49296;48.188;11.566;2023-05-14T12:50:17;17.22;58.96
63202;DHT22;49296;48.188;11.566;2023-05-14T12:52:43;17.46;59.92
63202;DHT22;49296;48.188;11.566;2023-05-14T12:55:10;17.19;62.04
63202;DHT22;49296;48.188;11.566;2023-05-14T12:57:37;17.07;61.06
63202;DHT22;49296;48.188;11.566;2023-05-14T13:00:07;17.47;59.16
63202;DHT22;49296;48.188;11.566;2023-05-14T13:02:34;17.92;57.94
63202;DHT22;49296;48.188;11.566;2023-05-14T13:05:01;18.44;56.80
63202;DHT22;49296;48.188;11.566;2023-05-14T13:07:28;18.42;56.97
63202;DHT22;49296;48.188;11.566;2023-05-14T13:09:56;17.63;57.75
63202;DHT22;49296;48.188;11.566;2023-05-14T13:12:23;18.16;57.47
63202;DHT22;49296;48.188;11.566;2023-05-14T13:14:49;18.56;56.18
63202;DHT22;49296;48.188;11.566;2023-05-14T13:17:17;19.16;56.79
63202;DHT22;49296;48.188;11.566;2023-05-14T13:19:44;19.58;56.08
63202;DHT22;49296;48.188;11.566;2023-05-14T13:22:10;19.45;54.65
63202;DHT22;49296;48.188;11.566;2023-05-14T13:24:38;19.71;52.85
63202;DHT22;49296;48.188;11.566;2023-05-14T13:27:05;19.36;53.30
63202;DHT22;49296;48.188;11.566;2023-05-14T13:29:32;19.01;54.66
63202;DHT22;49296;48.188;11.566;2023-05-14T13:31:59;19.46;53.33
63202;DHT22;49296;48.188;11.566;2023-05-14T13:34:27;20.23;51.45
63202;DHT22;49296;48.188;11.566;2023-05-14T13:36:54;20.50;51.07
63202;DHT22;49296;48.188;11.566;2023-05-14T13:39:21;20.80;49.47
63202;DHT22;49296;48.188;11.566;2023-05-14T13:41:51;20.96;51.68
63202;DHT22;49296;48.188;11.566;2023-05-14T13:44:20;20.44;51.72
63202;DHT22;49296;48.188;11.566;2023-05-14T13:46:46;20.60;51.19
63202;DHT22;49296;48.188;11.566;2023-05-14T13:49:13;20.41;51.24
63202;DHT22;49296;48.188;11.566;2023-05-14T13:51:41;21.25;49.97
63202;DHT22;49296;48.188;11.566;2023-05-14T13:54:08;21.73;48.59
63202;DHT22;49296;48.188;11.566;2023-05-14T13:56:35;22.13;47.82
63202;DHT22;49296;48.188;11.566;2023-05-14T13:59:01;22.43;47.19
63202;DHT22;49296;48.188;11.566;2023-05-14T14:01:28;22.46;48.84
63202;DHT22;49296;48.188;11.566;2023-05-14T14:03:56;22.43;46.76
63202;DHT22;49296;48.188;11.566;2023-05-14T14:06:24;22.26;46.27
63202;DHT22;49296;48.188;11.566;2023-05-14T14:08:52;22.40;47.01
63202;DHT22;49296;48.188;11.566;2023-05-14T14:11:19;22.63;47.19
63202;DHT22;49296;48.188;11.566;2023-05-14T14:13:46;22.98;44.31
63202;DHT22;49296;48.188;11.566;2023-05-14T14:16:12;23.18;45.12
63202;DHT22;49296;48.188;11.566;2023-05-14T14:18:39;22.65;46.67
63202;DHT22;49296;48.188;11.566;2023-05-14T14:21:07;22.15;46.53
63202;DHT22;49296;48.188;11.566;2023-05-14T14:23:34;22.87;44.58
63202;DHT22;49296;48.188;11.566;2023-05-14T14:26:02;22.57;45.89
63202;DHT22;49296;48.188;11.566;2023-05-14T14:28:29;23.09;44.58
63202;DHT22;49296;48.188;11.566;2023-05-14T14:30:56;22.58;44.45
63202;DHT22;49296;48.188;11.566;2023-05-14T14:33:22;21.79;46.83
63202;DHT22;49296;48.188;11.566;2023-05-14T14:35:49;21.09;48.12
63202;DHT22;49296;48.188;11.566;2023-05-14T14:38:16;20.50;49.35
63202;DHT22;49296;48.188;11.566;2023-05-14T14:40:42;20.92;48.29
63202;DHT22;49296;48.188;11.566;2023-05-14T14:43:11;21.73;48.68
63202;DHT22;49296;48.188;11.566;2023-05-14T14:45:38;21.79;46.67
63202;DHT22;49296;48.188;11.566;2023-05-14T14:48:32;21.64;46.72
63202;DHT22;49296;48.188;11.566;2023-05-14T14:51:02;21.73;46.23
63202;DHT22;49296;48.188;11.566;2023-05-14T14:53:30;21.33;47.49
63202;DHT22;49296;48.188;11.566;2023-05-14T14:55:58;21.78;46.37
63202;DHT22;49296;48.188;11.566;2023-05-14T14:58:27;21.95;45.30
63202;DHT22;49296;48.188;11.566;2023-05-14T15:00:56;22.58;44.85
63202;DHT22;49296;48.188;11.566;2023-05-14T15:03:23;22.36;44.46
63202;DHT22;49296;48.188;11.566;2023-05-14T15:05:50;22.64;44.29
63202;DHT22;49296;48.188;11.566;2023-05-14T15:08:17;22.57;44.85
63202;DHT22;49296;48.188;11.566;2023-05-14T15:10:45;22.87;44.40
63202;DHT22;49296;48.188;11.566;2023-05-14T15:13:12;23.08;44.00
63202;DHT22;49296;48.188;11.566;2023-05-14T15:15:39;22.46;44.38
63202;DHT22;49296;48.188;11.566;2023-05-14T15:18:06;22.94;42.79
63202;DHT22;49296;48.188;11.566;2023-05-14T15:20:34;22.58;42.95